Dekalb, IL

8:39 AM CDT on September 05, 2015 (GMT -0500)
South DeKalb | | Change Station
CLOSE
Current Station
Personal Weather Station
Location: DeKalb, IL
Elevation: 880 ft
Nearby Weather Stations

Elev 880 ft 41.92 °N, 88.76 °W | Updated 2 seconds ago

Clear
Clear
74.4 °F
Feels Like 73 °F
N
0.0
Wind Variable Wind from SE
Gusts 1.0 mph

Today
High -- | Low -- °F
--% Chance of Precip.
Yesterday
High -- | Low -- °F
Precip. -- in
6:24 AM 7:22 PM
Waning Gibbous, 48% visible
Pressure 30.11 in
Visibility 7.0 miles
Clouds Clear
Heat Index 73 °F
Dew Point 72 °F
Humidity 91%
Rainfall 0.00 in
Snow Depth Not available.
UV 1 out of 12
Pollen 4.90 out of 12
Air Quality Not available.
Flu Activity Not available.
METAR KDKB 051315Z AUTO 20005KT 7SM CLR 22/21 A3011 RMK AO2 T02200205
Pressure 30.11 in
Visibility 7.0 miles
Clouds Clear
Heat Index 73 °F
Dew Point 72 °F
Humidity 91%
Rainfall 0.00 in
Snow Depth Not available.
UV 1 out of 12
Pollen 4.90 out of 12
Air Quality Not available.
Flu Activity Not available.
METAR KDKB 051315Z AUTO 20005KT 7SM CLR 22/21 A3011 RMK AO2 T02200205

10-Day Weather Forecast

×

Almanac

Astronomy

Sep. 05, 2015 Rise Set
Actual Time
Civil Twilight
Nautical Twilight
Astronomical Twilight
Moon
Length of Visible Light
Length of Day
Tomorrow will be .
, % of the Moon is Illuminated

Today's Extremes

State Highs State Lows

Community

WunderPhotos

Upload Photos

1,852,454 photos uploaded!

WunderBlogs® & News

Nearby

Air Quality

  Air Quality AQ Index Pollutant
Not available.

Snow Depth

Station Depth Elevation

Earthquake Activity

City Distance Mag. Time & Date
Minimum magnitude displayed is 2.5.

Coastal Water Temperatures

Place Temperature

Stations

Nearby Weather Stations

Station Location Temp. Windchill Dew Point Humidity Wind Precip. Elev Updated Type